Wetterdaten: aktuell Mittwoch, 02.09.2026 13:29
Datum Zeit Temp. A. Feuchte A. Luftdruck Regen Wind Richtung Richtung Taupunkt Windchill
02.09.2026 13:29 24,6 °C 29 % 1012,9 hPa 0,0 l/m² 4,0 km/h (1 Bft) S 190 ° 5,4 °C 24,6 °C
02.09.2026 13:27 24,6 °C 29 % 1012,9 hPa 0,0 l/m² 6,2 km/h (2 Bft) W-SW 240 ° 5,4 °C 24,6 °C
02.09.2026 13:25 24,6 °C 29 % 1012,9 hPa 0,0 l/m² 3,9 km/h (1 Bft) W±67.5° 260 ° 5,4 °C 24,6 °C
02.09.2026 13:23 24,6 °C 29 % 1012,9 hPa 0,0 l/m² 3,9 km/h (1 Bft) W±67.5° 260 ° 5,4 °C 24,6 °C
02.09.2026 13:21 24,5 °C 31 % 1012,9 hPa 0,0 l/m² 10,7 km/h (2 Bft) S-SO±45° 155 ° 6,3 °C 23,5 °C
02.09.2026 13:19 24,4 °C 30 % 1012,9 hPa 0,0 l/m² 6,9 km/h (2 Bft) S-SO±45° 150 ° 5,7 °C 24,3 °C
02.09.2026 13:17 24,4 °C 30 % 1012,9 hPa 0,0 l/m² 6,9 km/h (2 Bft) S-SO±45° 150 ° 5,7 °C 24,3 °C
02.09.2026 13:15 24,2 °C 31 % 1012,9 hPa 0,0 l/m² 5,2 km/h (1 Bft) S-SO±67.5° 160 ° 6,0 °C 24,2 °C
02.09.2026 13:13 23,9 °C 31 % 1012,9 hPa 0,0 l/m² 1,2 km/h (1 Bft) W-SW±45° 250 ° 5,7 °C 23,9 °C
02.09.2026 13:11 23,9 °C 31 % 1012,9 hPa 0,0 l/m² 3,1 km/h (1 Bft) SO±45° 135 ° 5,7 °C 23,9 °C
02.09.2026 13:08 23,8 °C 32 % 1012,9 hPa 0,0 l/m² 3,1 km/h (1 Bft) SO±45° 135 ° 6,1 °C 23,8 °C
02.09.2026 13:06 23,7 °C 32 % 1012,9 hPa 0,0 l/m² 4,2 km/h (1 Bft) O±22.5° 95 ° 6,0 °C 23,7 °C
02.09.2026 13:04 23,7 °C 32 % 1012,9 hPa 0,0 l/m² 8,9 km/h (2 Bft) NW±22.5° 315 ° 6,0 °C 23,0 °C
02.09.2026 13:02 23,5 °C 32 % 1012,9 hPa 0,0 l/m² 8,9 km/h (2 Bft) NW±22.5° 315 ° 5,8 °C 22,8 °C
02.09.2026 13:00 23,5 °C 31 % 1012,9 hPa 0,0 l/m² 8,9 km/h (2 Bft) NW±22.5° 315 ° 5,4 °C 22,8 °C
02.09.2026 12:58 23,5 °C 31 % 1012,9 hPa 0,0 l/m² 8,9 km/h (2 Bft) NW±22.5° 315 ° 5,4 °C 22,8 °C
02.09.2026 12:56 23,4 °C 32 % 1012,9 hPa 0,0 l/m² 5,7 km/h (1 Bft) N-NO±67.5° 15 ° 5,8 °C 23,4 °C
02.09.2026 12:55 23,4 °C 33 % 1012,9 hPa 0,0 l/m² 5,7 km/h (1 Bft) N-NO±67.5° 15 ° 6,2 °C 23,4 °C
02.09.2026 12:53 23,4 °C 33 % 1012,9 hPa 0,0 l/m² 0,7 km/h (0 Bft) SO 130 ° 6,2 °C 23,4 °C
02.09.2026 12:51 23,3 °C 33 % 1014,0 hPa 0,0 l/m² 6,5 km/h (2 Bft) N-NW 330 ° 6,1 °C 23,3 °C
02.09.2026 12:49 23,3 °C 33 % 1014,0 hPa 0,0 l/m² 4,8 km/h (1 Bft) NW 320 ° 6,1 °C 23,3 °C
02.09.2026 12:47 23,3 °C 33 % 1014,0 hPa 0,0 l/m² 4,8 km/h (1 Bft) NW 320 ° 6,1 °C 23,3 °C
02.09.2026 12:45 23,2 °C 33 % 1014,0 hPa 0,0 l/m² 3,4 km/h (1 Bft) NW 315 ° 6,0 °C 23,2 °C
02.09.2026 12:43 23,2 °C 34 % 1014,0 hPa 0,0 l/m² 8,5 km/h (2 Bft) NW±22.5° 315 ° 6,5 °C 22,6 °C
02.09.2026 12:41 23,2 °C 34 % 1014,0 hPa 0,0 l/m² 0,4 km/h (0 Bft) N-NW 330 ° 6,5 °C 23,2 °C
02.09.2026 12:39 23,2 °C 35 % 1014,0 hPa 0,0 l/m² 0,4 km/h (0 Bft) N-NW 330 ° 6,9 °C 23,2 °C
02.09.2026 12:37 23,2 °C 35 % 1014,0 hPa 0,0 l/m² 7,6 km/h (2 Bft) NW±45° 315 ° 6,9 °C 22,8 °C
02.09.2026 12:35 23,2 °C 35 % 1014,0 hPa 0,0 l/m² 5,8 km/h (2 Bft) N-NO±67.5° 30 ° 6,9 °C 23,2 °C
02.09.2026 12:33 23,1 °C 35 % 1014,0 hPa 0,0 l/m² 5,8 km/h (2 Bft) N-NO±67.5° 30 ° 6,8 °C 23,1 °C
02.09.2026 12:31 22,9 °C 40 % 1014,0 hPa 0,0 l/m² 0,9 km/h (0 Bft) N-NO±22.5° 20 ° 8,6 °C 22,9 °C
02.09.2026 12:29 22,9 °C 40 % 1014,0 hPa 0,0 l/m² 5,6 km/h (1 Bft) S-SO±67.5° 150 ° 8,6 °C 22,9 °C
02.09.2026 12:26 22,9 °C 40 % 1014,0 hPa 0,0 l/m² 0,6 km/h (0 Bft) W-SW 255 ° 8,6 °C 22,9 °C
02.09.2026 12:24 22,8 °C 40 % 1014,0 hPa 0,0 l/m² 0,6 km/h (0 Bft) W-SW 255 ° 8,5 °C 22,8 °C
02.09.2026 12:22 22,8 °C 40 % 1014,0 hPa 0,0 l/m² 1,5 km/h (1 Bft) S-SW±45° 210 ° 8,5 °C 22,8 °C
02.09.2026 12:20 22,7 °C 41 % 1014,0 hPa 0,0 l/m² 0,3 km/h (0 Bft) SO 145 ° 8,8 °C 22,7 °C
02.09.2026 12:18 22,6 °C 42 % 1014,0 hPa 0,0 l/m² 1,5 km/h (1 Bft) SO 145 ° 9,0 °C 22,6 °C
02.09.2026 12:16 22,4 °C 43 % 1014,0 hPa 0,0 l/m² 1,5 km/h (1 Bft) SO 145 ° 9,2 °C 22,4 °C
02.09.2026 12:15 22,4 °C 43 % 1014,0 hPa 0,0 l/m² 0,4 km/h (0 Bft) SO 140 ° 9,2 °C 22,4 °C
02.09.2026 12:13 22,3 °C 43 % 1014,0 hPa 0,0 l/m² 0,3 km/h (0 Bft) S-SO±22.5° 150 ° 9,1 °C 22,3 °C
02.09.2026 12:11 22,3 °C 44 % 1014,0 hPa 0,0 l/m² 0,3 km/h (0 Bft) S-SO±22.5° 150 ° 9,5 °C 22,3 °C
02.09.2026 12:09 22,3 °C 44 % 1014,0 hPa 0,0 l/m² 0,1 km/h (0 Bft) S-SW 200 ° 9,5 °C 22,3 °C
_ Min-Zeit 07:36 13:23 13:23 - 00:01 - - 13:23 07:36
Minimum _ 13,8 °C 29 % 1012,9 hPa - 0,0 km/h (0 Bft) - - 5,4 °C 13,8 °C
_ Max-Zeit 13:23 07:53 07:36 00:01 13:21 - - 10:24 13:23
Maximum _ 24,6 °C 81 % 1014,4 hPa 0,0 l/m² 10,7 km/h
S-SO (2 Bft)
- - 12,1 °C 24,6 °C
Durchschnitt _ 17,0 °C 65 % 1013,8 hPa #0,0 l/m² 0,8 km/h (0 Bft) SO - 10,0 °C 17,0 °C